Western Neb. Rgnl/William B. Heilig Airport
KBFF : now visible

Airfield :











YOU CAN JOIN US ON...

 
LOGIN :

Register | Disclaimer

   EN    FR    IT 

 









Legend :    VFR   Marginal VFR   IFR   Intensive IFR   Very Intensive IFR
Visi :
Ceiling :
>= 8 km
>= 3000ft
5 to 8 km
1000 to 3000 ft
1500m to 5 km
500 to 1000 ft
800 to 1500m
200 to 500 ft
< 800m
< 200 ft
Symbols :   Thunderstorms  Fog  Heavy snow  Heavy precipitations  Wind > 20 kt






- Airport Elevation : 3967 ft
- IATA code : BFF


KBFF - Western Neb. Rgnl/William B. Heilig

CURRENT METAR :
  • 050625Z AUTO 28009KT 10SM VCTS BKN080 BKN090 22/16 A3008 RMK AO2 LTG DSNT SW AND W T02220161

EXPIRED METARs :
  • 050553Z AUTO 06005KT 10SM CLR 21/17 A3006 RMK AO2 LTG DSNT SW AND W SLP131 T02060167 10311 20206 50009
  • 050453Z AUTO 13005KT 10SM CLR 23/16 A3007 RMK AO2 SLP133 T02280161

TAF KBFF
Valid from the 05 at 06:00 until the 06 at 06:00 UTC


050547Z 0506/0606 VRB05KT P6SM FEW080 OVC250
TEMPO 0506/0507 VRB20G33KT -TSRA BKN080CB
FM051600 12008KT P6SM SCT060
FM052200 12011KT P6SM VCTS SCT070CB BKN150
FM060230 23010KT P6SM SCT100 OVC250
KZDV FIR / North America



MET'MAP, your aeronautical weather chart ! - Copyright ORBIFLY December 2007 - Disclaimer

ORBIFLY MET'MAP TEAM :

Programming & Development : Alexandra Zaïnal
Concept & original design : Baudouin d'Aumeries
Assistance for programming : Marc-Olivier Méhu
Technical & hardware support : Manuel Goepfert

Contact : metmap@orbifly.com




SOURCES & CREDITS :

   NOAA       Earth
Advisory